sensor_id;sensor_type;location;lat;lon;timestamp;temperature;humidity
43561;DHT22;32305;46.410;17.394;2023-03-01T00:01:15;22.00;32.40
43561;DHT22;32305;46.410;17.394;2023-03-01T00:03:43;21.90;32.30
43561;DHT22;32305;46.410;17.394;2023-03-01T00:06:10;21.90;32.40
43561;DHT22;32305;46.410;17.394;2023-03-01T00:08:38;21.90;32.40
43561;DHT22;32305;46.410;17.394;2023-03-01T00:11:22;21.90;32.40
43561;DHT22;32305;46.410;17.394;2023-03-01T00:13:52;21.90;32.40
43561;DHT22;32305;46.410;17.394;2023-03-01T00:16:22;21.90;32.40
43561;DHT22;32305;46.410;17.394;2023-03-01T00:18:50;21.90;32.40
43561;DHT22;32305;46.410;17.394;2023-03-01T00:21:18;21.90;32.40
43561;DHT22;32305;46.410;17.394;2023-03-01T00:23:47;21.90;32.50
43561;DHT22;32305;46.410;17.394;2023-03-01T00:26:16;21.90;32.40
43561;DHT22;32305;46.410;17.394;2023-03-01T00:28:45;21.90;32.50
43561;DHT22;32305;46.410;17.394;2023-03-01T00:31:15;21.90;32.40
43561;DHT22;32305;46.410;17.394;2023-03-01T00:33:43;21.90;32.50
43561;DHT22;32305;46.410;17.394;2023-03-01T00:36:11;21.90;32.50
43561;DHT22;32305;46.410;17.394;2023-03-01T00:38:41;21.90;32.40
43561;DHT22;32305;46.410;17.394;2023-03-01T00:41:11;21.90;32.50
43561;DHT22;32305;46.410;17.394;2023-03-01T00:43:38;21.90;32.40
43561;DHT22;32305;46.410;17.394;2023-03-01T00:46:15;21.90;32.40
43561;DHT22;32305;46.410;17.394;2023-03-01T00:48:42;21.80;32.40
43561;DHT22;32305;46.410;17.394;2023-03-01T00:51:14;21.80;32.40
43561;DHT22;32305;46.410;17.394;2023-03-01T00:53:42;21.90;32.40
43561;DHT22;32305;46.410;17.394;2023-03-01T00:56:11;21.90;32.50
43561;DHT22;32305;46.410;17.394;2023-03-01T00:58:38;21.90;32.40
43561;DHT22;32305;46.410;17.394;2023-03-01T01:01:14;21.80;32.40
43561;DHT22;32305;46.410;17.394;2023-03-01T01:03:51;21.80;33.00
43561;DHT22;32305;46.410;17.394;2023-03-01T01:06:21;21.80;32.40
43561;DHT22;32305;46.410;17.394;2023-03-01T01:08:50;21.80;32.40
43561;DHT22;32305;46.410;17.394;2023-03-01T01:11:18;21.80;32.40
43561;DHT22;32305;46.410;17.394;2023-03-01T01:13:47;21.80;32.40
43561;DHT22;32305;46.410;17.394;2023-03-01T01:16:16;21.80;32.40
43561;DHT22;32305;46.410;17.394;2023-03-01T01:18:44;21.80;32.40
43561;DHT22;32305;46.410;17.394;2023-03-01T01:21:14;21.80;32.40
43561;DHT22;32305;46.410;17.394;2023-03-01T01:23:43;21.80;32.40
43561;DHT22;32305;46.410;17.394;2023-03-01T01:26:16;21.80;32.40
43561;DHT22;32305;46.410;17.394;2023-03-01T01:28:43;21.80;32.40
43561;DHT22;32305;46.410;17.394;2023-03-01T01:31:10;21.80;32.40
43561;DHT22;32305;46.410;17.394;2023-03-01T01:33:38;21.80;32.40
43561;DHT22;32305;46.410;17.394;2023-03-01T01:36:06;21.80;32.40
43561;DHT22;32305;46.410;17.394;2023-03-01T01:38:34;21.80;32.40
43561;DHT22;32305;46.410;17.394;2023-03-01T01:41:01;21.80;32.40
43561;DHT22;32305;46.410;17.394;2023-03-01T01:43:33;21.80;32.40
43561;DHT22;32305;46.410;17.394;2023-03-01T01:46:21;21.80;32.40
43561;DHT22;32305;46.410;17.394;2023-03-01T01:49:07;21.80;32.40
43561;DHT22;32305;46.410;17.394;2023-03-01T01:51:38;21.80;32.40
43561;DHT22;32305;46.410;17.394;2023-03-01T01:54:12;21.80;32.30
43561;DHT22;32305;46.410;17.394;2023-03-01T01:56:45;21.80;32.40
43561;DHT22;32305;46.410;17.394;2023-03-01T01:59:14;21.80;32.30
43561;DHT22;32305;46.410;17.394;2023-03-01T02:01:42;21.80;32.30
43561;DHT22;32305;46.410;17.394;2023-03-01T02:04:10;21.80;32.30
43561;DHT22;32305;46.410;17.394;2023-03-01T02:06:41;21.80;32.30
43561;DHT22;32305;46.410;17.394;2023-03-01T02:09:14;21.80;32.30
43561;DHT22;32305;46.410;17.394;2023-03-01T02:11:43;21.80;32.30
43561;DHT22;32305;46.410;17.394;2023-03-01T02:14:11;21.80;32.50
43561;DHT22;32305;46.410;17.394;2023-03-01T02:16:38;21.80;32.30
43561;DHT22;32305;46.410;17.394;2023-03-01T02:19:06;21.70;32.30
43561;DHT22;32305;46.410;17.394;2023-03-01T02:21:55;21.70;32.30
43561;DHT22;32305;46.410;17.394;2023-03-01T02:24:49;21.80;32.40
43561;DHT22;32305;46.410;17.394;2023-03-01T02:27:23;21.70;32.30
43561;DHT22;32305;46.410;17.394;2023-03-01T02:29:52;21.70;32.30
43561;DHT22;32305;46.410;17.394;2023-03-01T02:32:22;21.70;32.30
43561;DHT22;32305;46.410;17.394;2023-03-01T02:34:54;21.70;32.30
43561;DHT22;32305;46.410;17.394;2023-03-01T02:37:21;21.70;32.30
43561;DHT22;32305;46.410;17.394;2023-03-01T02:39:58;21.70;32.30
43561;DHT22;32305;46.410;17.394;2023-03-01T02:42:31;21.70;32.30
43561;DHT22;32305;46.410;17.394;2023-03-01T02:45:00;21.70;32.40
43561;DHT22;32305;46.410;17.394;2023-03-01T02:47:27;21.70;32.30
43561;DHT22;32305;46.410;17.394;2023-03-01T02:49:55;21.70;32.40
43561;DHT22;32305;46.410;17.394;2023-03-01T02:52:46;21.70;32.30
43561;DHT22;32305;46.410;17.394;2023-03-01T02:55:14;21.70;32.30
43561;DHT22;32305;46.410;17.394;2023-03-01T02:57:45;21.70;32.30
43561;DHT22;32305;46.410;17.394;2023-03-01T03:00:24;21.70;32.30
43561;DHT22;32305;46.410;17.394;2023-03-01T03:02:54;21.70;32.30
43561;DHT22;32305;46.410;17.394;2023-03-01T03:05:27;21.70;32.30
43561;DHT22;32305;46.410;17.394;2023-03-01T03:07:55;21.70;32.40
43561;DHT22;32305;46.410;17.394;2023-03-01T03:10:28;21.70;32.40
43561;DHT22;32305;46.410;17.394;2023-03-01T03:12:58;21.70;32.40
43561;DHT22;32305;46.410;17.394;2023-03-01T03:15:27;21.70;32.40
43561;DHT22;32305;46.410;17.394;2023-03-01T03:17:57;21.70;32.40
43561;DHT22;32305;46.410;17.394;2023-03-01T03:20:26;21.70;32.40
43561;DHT22;32305;46.410;17.394;2023-03-01T03:22:55;21.60;32.40
43561;DHT22;32305;46.410;17.394;2023-03-01T03:25:22;21.60;32.40
43561;DHT22;32305;46.410;17.394;2023-03-01T03:27:51;21.70;32.40
43561;DHT22;32305;46.410;17.394;2023-03-01T03:30:25;21.70;32.40
43561;DHT22;32305;46.410;17.394;2023-03-01T03:32:53;21.60;32.90
43561;DHT22;32305;46.410;17.394;2023-03-01T03:35:23;21.70;32.40
43561;DHT22;32305;46.410;17.394;2023-03-01T03:37:52;21.60;32.40
43561;DHT22;32305;46.410;17.394;2023-03-01T03:40:32;21.70;32.40
43561;DHT22;32305;46.410;17.394;2023-03-01T03:42:59;21.60;32.40
43561;DHT22;32305;46.410;17.394;2023-03-01T03:45:27;21.60;32.40
43561;DHT22;32305;46.410;17.394;2023-03-01T03:47:54;21.60;33.00
43561;DHT22;32305;46.410;17.394;2023-03-01T03:50:22;21.60;32.40
43561;DHT22;32305;46.410;17.394;2023-03-01T03:52:49;21.70;32.50
43561;DHT22;32305;46.410;17.394;2023-03-01T03:55:16;21.60;32.40
43561;DHT22;32305;46.410;17.394;2023-03-01T03:57:49;21.60;32.40
43561;DHT22;32305;46.410;17.394;2023-03-01T04:00:21;21.60;32.40
43561;DHT22;32305;46.410;17.394;2023-03-01T04:02:51;21.60;32.30
43561;DHT22;32305;46.410;17.394;2023-03-01T04:05:18;21.60;32.30
43561;DHT22;32305;46.410;17.394;2023-03-01T04:07:46;21.70;32.40
43561;DHT22;32305;46.410;17.394;2023-03-01T04:10:16;21.60;32.30
43561;DHT22;32305;46.410;17.394;2023-03-01T04:12:44;21.60;32.30
43561;DHT22;32305;46.410;17.394;2023-03-01T04:15:11;21.60;32.30
43561;DHT22;32305;46.410;17.394;2023-03-01T04:17:46;21.60;32.30
43561;DHT22;32305;46.410;17.394;2023-03-01T04:20:16;21.60;32.30
43561;DHT22;32305;46.410;17.394;2023-03-01T04:22:44;21.70;32.40
43561;DHT22;32305;46.410;17.394;2023-03-01T04:25:14;21.60;32.40
43561;DHT22;32305;46.410;17.394;2023-03-01T04:27:41;21.60;32.40
43561;DHT22;32305;46.410;17.394;2023-03-01T04:30:09;21.60;32.40
43561;DHT22;32305;46.410;17.394;2023-03-01T04:32:37;21.60;32.40
43561;DHT22;32305;46.410;17.394;2023-03-01T04:35:04;21.60;32.40
43561;DHT22;32305;46.410;17.394;2023-03-01T04:37:31;21.60;32.40
43561;DHT22;32305;46.410;17.394;2023-03-01T04:39:59;21.60;32.40
43561;DHT22;32305;46.410;17.394;2023-03-01T04:42:26;21.60;32.40
43561;DHT22;32305;46.410;17.394;2023-03-01T04:44:53;21.60;32.40
43561;DHT22;32305;46.410;17.394;2023-03-01T04:47:20;21.60;32.40
43561;DHT22;32305;46.410;17.394;2023-03-01T04:49:47;21.60;32.40
43561;DHT22;32305;46.410;17.394;2023-03-01T04:52:15;21.60;32.40
43561;DHT22;32305;46.410;17.394;2023-03-01T04:54:43;21.60;32.40
43561;DHT22;32305;46.410;17.394;2023-03-01T04:57:10;21.60;32.40
43561;DHT22;32305;46.410;17.394;2023-03-01T04:59:37;21.60;32.40
43561;DHT22;32305;46.410;17.394;2023-03-01T05:02:04;21.60;32.50
43561;DHT22;32305;46.410;17.394;2023-03-01T05:04:31;21.50;32.40
43561;DHT22;32305;46.410;17.394;2023-03-01T05:06:58;21.50;32.40
43561;DHT22;32305;46.410;17.394;2023-03-01T05:09:26;21.60;32.40
43561;DHT22;32305;46.410;17.394;2023-03-01T05:11:53;21.60;32.50
43561;DHT22;32305;46.410;17.394;2023-03-01T05:14:20;21.50;32.40
43561;DHT22;32305;46.410;17.394;2023-03-01T05:16:48;21.50;32.40
43561;DHT22;32305;46.410;17.394;2023-03-01T05:19:15;21.60;32.50
43561;DHT22;32305;46.410;17.394;2023-03-01T05:21:43;21.60;32.50
43561;DHT22;32305;46.410;17.394;2023-03-01T05:24:32;21.50;32.40
43561;DHT22;32305;46.410;17.394;2023-03-01T05:27:01;21.50;32.40
43561;DHT22;32305;46.410;17.394;2023-03-01T05:29:30;21.50;32.40
43561;DHT22;32305;46.410;17.394;2023-03-01T05:31:59;21.50;32.50
43561;DHT22;32305;46.410;17.394;2023-03-01T05:34:29;21.50;32.50
43561;DHT22;32305;46.410;17.394;2023-03-01T05:36:57;21.50;32.50
43561;DHT22;32305;46.410;17.394;2023-03-01T05:39:26;21.50;33.00
43561;DHT22;32305;46.410;17.394;2023-03-01T05:41:55;21.50;32.40
43561;DHT22;32305;46.410;17.394;2023-03-01T05:44:23;21.50;32.30
43561;DHT22;32305;46.410;17.394;2023-03-01T05:46:50;21.50;32.30
43561;DHT22;32305;46.410;17.394;2023-03-01T05:49:19;21.50;32.40
43561;DHT22;32305;46.410;17.394;2023-03-01T05:51:50;21.40;32.40
43561;DHT22;32305;46.410;17.394;2023-03-01T05:54:19;21.40;32.50
43561;DHT22;32305;46.410;17.394;2023-03-01T05:56:47;21.40;32.50
43561;DHT22;32305;46.410;17.394;2023-03-01T05:59:14;21.40;32.50
43561;DHT22;32305;46.410;17.394;2023-03-01T06:01:43;21.40;32.50
43561;DHT22;32305;46.410;17.394;2023-03-01T06:04:10;21.50;32.50
43561;DHT22;32305;46.410;17.394;2023-03-01T06:06:37;21.40;32.40
43561;DHT22;32305;46.410;17.394;2023-03-01T06:09:06;21.50;32.50
43561;DHT22;32305;46.410;17.394;2023-03-01T06:11:35;21.50;32.50
43561;DHT22;32305;46.410;17.394;2023-03-01T06:14:03;21.60;32.60
43561;DHT22;32305;46.410;17.394;2023-03-01T06:16:31;21.50;32.60
43561;DHT22;32305;46.410;17.394;2023-03-01T06:18:58;21.60;32.60
43561;DHT22;32305;46.410;17.394;2023-03-01T06:21:25;21.60;32.60
43561;DHT22;32305;46.410;17.394;2023-03-01T06:23:53;21.60;32.60
43561;DHT22;32305;46.410;17.394;2023-03-01T06:26:20;21.60;32.60
43561;DHT22;32305;46.410;17.394;2023-03-01T06:28:48;21.60;32.70
43561;DHT22;32305;46.410;17.394;2023-03-01T06:31:15;21.70;32.70
43561;DHT22;32305;46.410;17.394;2023-03-01T06:33:42;21.70;32.80
43561;DHT22;32305;46.410;17.394;2023-03-01T06:36:11;21.70;32.80
43561;DHT22;32305;46.410;17.394;2023-03-01T06:38:38;21.80;32.90
43561;DHT22;32305;46.410;17.394;2023-03-01T06:41:07;21.80;32.90
43561;DHT22;32305;46.410;17.394;2023-03-01T06:43:34;21.80;33.40
43561;DHT22;32305;46.410;17.394;2023-03-01T06:46:04;21.90;32.90
43561;DHT22;32305;46.410;17.394;2023-03-01T06:48:33;21.90;32.90
43561;DHT22;32305;46.410;17.394;2023-03-01T06:51:00;21.90;33.10
43561;DHT22;32305;46.410;17.394;2023-03-01T06:53:29;22.00;33.20
43561;DHT22;32305;46.410;17.394;2023-03-01T06:55:57;22.00;33.20
43561;DHT22;32305;46.410;17.394;2023-03-01T06:58:24;22.00;33.10
43561;DHT22;32305;46.410;17.394;2023-03-01T07:00:51;22.10;33.10
43561;DHT22;32305;46.410;17.394;2023-03-01T07:03:19;22.10;33.10
43561;DHT22;32305;46.410;17.394;2023-03-01T07:05:49;22.10;33.30
43561;DHT22;32305;46.410;17.394;2023-03-01T07:08:18;22.20;33.70
43561;DHT22;32305;46.410;17.394;2023-03-01T07:10:46;22.30;34.00
43561;DHT22;32305;46.410;17.394;2023-03-01T07:13:13;22.30;34.20
43561;DHT22;32305;46.410;17.394;2023-03-01T07:15:41;22.30;34.30
43561;DHT22;32305;46.410;17.394;2023-03-01T07:18:08;22.40;34.40
43561;DHT22;32305;46.410;17.394;2023-03-01T07:20:36;22.40;34.50
43561;DHT22;32305;46.410;17.394;2023-03-01T07:23:05;22.50;34.70
43561;DHT22;32305;46.410;17.394;2023-03-01T07:25:33;22.50;34.60
43561;DHT22;32305;46.410;17.394;2023-03-01T07:28:00;22.50;34.50
43561;DHT22;32305;46.410;17.394;2023-03-01T07:30:28;22.60;34.60
43561;DHT22;32305;46.410;17.394;2023-03-01T07:32:56;22.60;34.60
43561;DHT22;32305;46.410;17.394;2023-03-01T07:35:27;22.60;34.50
43561;DHT22;32305;46.410;17.394;2023-03-01T07:37:54;22.70;34.60
43561;DHT22;32305;46.410;17.394;2023-03-01T07:40:22;22.70;34.50
43561;DHT22;32305;46.410;17.394;2023-03-01T07:42:54;22.70;35.10
43561;DHT22;32305;46.410;17.394;2023-03-01T07:45:21;22.80;34.50
43561;DHT22;32305;46.410;17.394;2023-03-01T07:47:50;22.80;34.50
43561;DHT22;32305;46.410;17.394;2023-03-01T07:50:18;22.90;34.50
43561;DHT22;32305;46.410;17.394;2023-03-01T07:52:46;22.90;34.30
43561;DHT22;32305;46.410;17.394;2023-03-01T07:55:15;23.00;34.10
43561;DHT22;32305;46.410;17.394;2023-03-01T07:57:43;23.00;34.10
43561;DHT22;32305;46.410;17.394;2023-03-01T08:00:11;23.00;34.10
43561;DHT22;32305;46.410;17.394;2023-03-01T08:02:38;23.10;34.20
43561;DHT22;32305;46.410;17.394;2023-03-01T08:05:08;23.10;34.10
43561;DHT22;32305;46.410;17.394;2023-03-01T08:07:35;23.10;34.10
43561;DHT22;32305;46.410;17.394;2023-03-01T08:10:03;23.10;34.10
43561;DHT22;32305;46.410;17.394;2023-03-01T08:12:30;23.20;34.10
43561;DHT22;32305;46.410;17.394;2023-03-01T08:14:57;23.20;34.00
43561;DHT22;32305;46.410;17.394;2023-03-01T08:17:25;23.20;34.10
43561;DHT22;32305;46.410;17.394;2023-03-01T08:19:52;23.30;34.10
43561;DHT22;32305;46.410;17.394;2023-03-01T08:22:19;23.30;34.10
43561;DHT22;32305;46.410;17.394;2023-03-01T08:24:47;23.30;34.00
43561;DHT22;32305;46.410;17.394;2023-03-01T08:27:16;23.30;34.00
43561;DHT22;32305;46.410;17.394;2023-03-01T08:29:44;23.40;34.10
43561;DHT22;32305;46.410;17.394;2023-03-01T08:32:11;23.40;34.10
43561;DHT22;32305;46.410;17.394;2023-03-01T08:34:38;23.40;34.20
43561;DHT22;32305;46.410;17.394;2023-03-01T08:37:08;23.50;34.30
43561;DHT22;32305;46.410;17.394;2023-03-01T08:39:35;23.50;34.40
43561;DHT22;32305;46.410;17.394;2023-03-01T08:42:03;23.50;34.30
43561;DHT22;32305;46.410;17.394;2023-03-01T08:44:31;23.60;34.20
43561;DHT22;32305;46.410;17.394;2023-03-01T08:46:58;23.60;34.00
43561;DHT22;32305;46.410;17.394;2023-03-01T08:49:25;23.60;33.80
43561;DHT22;32305;46.410;17.394;2023-03-01T08:51:53;23.70;33.70
43561;DHT22;32305;46.410;17.394;2023-03-01T08:54:22;23.70;33.60
43561;DHT22;32305;46.410;17.394;2023-03-01T08:56:49;23.70;33.40
43561;DHT22;32305;46.410;17.394;2023-03-01T08:59:17;23.70;33.30
43561;DHT22;32305;46.410;17.394;2023-03-01T09:01:45;23.70;33.30
43561;DHT22;32305;46.410;17.394;2023-03-01T09:04:14;23.80;33.30
43561;DHT22;32305;46.410;17.394;2023-03-01T09:06:42;23.80;33.30
43561;DHT22;32305;46.410;17.394;2023-03-01T09:09:15;23.80;33.20
43561;DHT22;32305;46.410;17.394;2023-03-01T09:11:46;23.80;33.20
43561;DHT22;32305;46.410;17.394;2023-03-01T09:14:14;23.80;33.20
43561;DHT22;32305;46.410;17.394;2023-03-01T09:16:41;23.80;33.20
43561;DHT22;32305;46.410;17.394;2023-03-01T09:19:09;23.90;33.10
43561;DHT22;32305;46.410;17.394;2023-03-01T09:21:37;23.90;33.10
43561;DHT22;32305;46.410;17.394;2023-03-01T09:24:14;23.80;33.00
43561;DHT22;32305;46.410;17.394;2023-03-01T09:26:42;23.90;33.00
43561;DHT22;32305;46.410;17.394;2023-03-01T09:29:09;23.90;33.20
43561;DHT22;32305;46.410;17.394;2023-03-01T09:31:37;23.90;33.40
43561;DHT22;32305;46.410;17.394;2023-03-01T09:34:04;23.90;33.40
43561;DHT22;32305;46.410;17.394;2023-03-01T09:36:32;24.00;33.40
43561;DHT22;32305;46.410;17.394;2023-03-01T09:39:02;23.90;33.30
43561;DHT22;32305;46.410;17.394;2023-03-01T09:44:51;24.00;33.20
43561;DHT22;32305;46.410;17.394;2023-03-01T09:47:21;24.00;33.40
43561;DHT22;32305;46.410;17.394;2023-03-01T09:53:05;24.00;33.50
43561;DHT22;32305;46.410;17.394;2023-03-01T09:55:55;24.00;33.50
43561;DHT22;32305;46.410;17.394;2023-03-01T09:58:59;24.00;33.50
43561;DHT22;32305;46.410;17.394;2023-03-01T10:01:38;24.00;33.30
43561;DHT22;32305;46.410;17.394;2023-03-01T10:04:28;24.00;33.10
43561;DHT22;32305;46.410;17.394;2023-03-01T10:10:06;24.10;33.40
43561;DHT22;32305;46.410;17.394;2023-03-01T10:12:37;24.10;34.00
43561;DHT22;32305;46.410;17.394;2023-03-01T10:15:17;24.10;33.40
43561;DHT22;32305;46.410;17.394;2023-03-01T10:18:06;24.20;33.40
43561;DHT22;32305;46.410;17.394;2023-03-01T10:20:56;24.20;33.20
43561;DHT22;32305;46.410;17.394;2023-03-01T10:23:25;24.20;33.20
43561;DHT22;32305;46.410;17.394;2023-03-01T10:29:03;24.30;33.20
43561;DHT22;32305;46.410;17.394;2023-03-01T10:31:49;24.40;33.20
43561;DHT22;32305;46.410;17.394;2023-03-01T10:34:27;24.50;33.10
43561;DHT22;32305;46.410;17.394;2023-03-01T10:37:09;24.50;33.10
43561;DHT22;32305;46.410;17.394;2023-03-01T10:39:36;24.60;33.10
43561;DHT22;32305;46.410;17.394;2023-03-01T10:42:11;24.60;33.00
43561;DHT22;32305;46.410;17.394;2023-03-01T10:44:48;24.60;32.90
43561;DHT22;32305;46.410;17.394;2023-03-01T10:47:21;24.70;32.90
43561;DHT22;32305;46.410;17.394;2023-03-01T10:50:05;24.70;32.80
43561;DHT22;32305;46.410;17.394;2023-03-01T10:52:37;24.70;32.50
43561;DHT22;32305;46.410;17.394;2023-03-01T10:55:30;24.80;32.50
43561;DHT22;32305;46.410;17.394;2023-03-01T10:58:21;24.90;32.50
43561;DHT22;32305;46.410;17.394;2023-03-01T11:04:13;24.90;32.40
43561;DHT22;32305;46.410;17.394;2023-03-01T11:06:43;24.90;32.10
43561;DHT22;32305;46.410;17.394;2023-03-01T11:09:24;24.90;32.00
43561;DHT22;32305;46.410;17.394;2023-03-01T11:11:56;24.90;32.00
43561;DHT22;32305;46.410;17.394;2023-03-01T11:14:25;24.90;32.00
43561;DHT22;32305;46.410;17.394;2023-03-01T11:16:58;25.00;32.00
43561;DHT22;32305;46.410;17.394;2023-03-01T11:19:26;25.00;31.90
43561;DHT22;32305;46.410;17.394;2023-03-01T11:22:14;25.00;31.90
43561;DHT22;32305;46.410;17.394;2023-03-01T11:24:49;25.00;31.80
43561;DHT22;32305;46.410;17.394;2023-03-01T11:27:40;25.10;31.80
43561;DHT22;32305;46.410;17.394;2023-03-01T11:30:28;25.10;31.80
43561;DHT22;32305;46.410;17.394;2023-03-01T11:36:39;25.10;31.70
43561;DHT22;32305;46.410;17.394;2023-03-01T11:39:45;25.10;31.70
43561;DHT22;32305;46.410;17.394;2023-03-01T11:42:25;25.10;31.70
43561;DHT22;32305;46.410;17.394;2023-03-01T11:45:06;25.10;31.60
43561;DHT22;32305;46.410;17.394;2023-03-01T11:50:47;25.10;31.70
43561;DHT22;32305;46.410;17.394;2023-03-01T11:56:34;25.20;31.70
43561;DHT22;32305;46.410;17.394;2023-03-01T12:05:34;25.20;31.50
43561;DHT22;32305;46.410;17.394;2023-03-01T12:08:17;25.30;31.60
43561;DHT22;32305;46.410;17.394;2023-03-01T12:11:06;25.30;31.40
43561;DHT22;32305;46.410;17.394;2023-03-01T12:13:59;25.20;31.50
43561;DHT22;32305;46.410;17.394;2023-03-01T12:20:02;25.20;31.70
43561;DHT22;32305;46.410;17.394;2023-03-01T12:22:36;25.10;31.70
43561;DHT22;32305;46.410;17.394;2023-03-01T12:25:27;25.10;31.70
43561;DHT22;32305;46.410;17.394;2023-03-01T12:28:25;25.10;31.70
43561;DHT22;32305;46.410;17.394;2023-03-01T12:31:16;25.10;31.70
43561;DHT22;32305;46.410;17.394;2023-03-01T12:34:27;25.10;31.60
43561;DHT22;32305;46.410;17.394;2023-03-01T12:37:36;25.10;31.60
43561;DHT22;32305;46.410;17.394;2023-03-01T12:40:22;25.10;31.70
43561;DHT22;32305;46.410;17.394;2023-03-01T12:43:03;25.10;31.70
43561;DHT22;32305;46.410;17.394;2023-03-01T12:49:15;25.10;31.80
43561;DHT22;32305;46.410;17.394;2023-03-01T12:51:56;25.10;31.80
43561;DHT22;32305;46.410;17.394;2023-03-01T12:54:28;25.10;31.80
43561;DHT22;32305;46.410;17.394;2023-03-01T12:57:14;25.10;31.70
43561;DHT22;32305;46.410;17.394;2023-03-01T13:00:17;25.10;31.70
43561;DHT22;32305;46.410;17.394;2023-03-01T13:02:54;25.10;31.60
43561;DHT22;32305;46.410;17.394;2023-03-01T13:05:59;25.10;31.70
43561;DHT22;32305;46.410;17.394;2023-03-01T13:08:41;25.20;31.60
43561;DHT22;32305;46.410;17.394;2023-03-01T13:11:19;25.20;31.70
43561;DHT22;32305;46.410;17.394;2023-03-01T13:13:47;25.20;31.70
43561;DHT22;32305;46.410;17.394;2023-03-01T13:16:41;25.20;31.60
43561;DHT22;32305;46.410;17.394;2023-03-01T13:19:26;25.20;31.60
43561;DHT22;32305;46.410;17.394;2023-03-01T13:21:56;25.20;31.60
43561;DHT22;32305;46.410;17.394;2023-03-01T13:24:32;25.20;31.50
43561;DHT22;32305;46.410;17.394;2023-03-01T13:27:22;25.20;31.60
43561;DHT22;32305;46.410;17.394;2023-03-01T13:29:53;25.20;31.50
43561;DHT22;32305;46.410;17.394;2023-03-01T13:32:30;25.20;31.50
43561;DHT22;32305;46.410;17.394;2023-03-01T13:35:43;25.20;31.50
43561;DHT22;32305;46.410;17.394;2023-03-01T13:38:48;25.20;31.40
43561;DHT22;32305;46.410;17.394;2023-03-01T13:41:51;25.20;31.40
43561;DHT22;32305;46.410;17.394;2023-03-01T13:44:21;25.20;31.40
43561;DHT22;32305;46.410;17.394;2023-03-01T13:46:55;25.20;31.40
43561;DHT22;32305;46.410;17.394;2023-03-01T13:49:28;25.20;31.40
43561;DHT22;32305;46.410;17.394;2023-03-01T13:52:46;25.20;31.40
43561;DHT22;32305;46.410;17.394;2023-03-01T13:55:24;25.20;31.30
43561;DHT22;32305;46.410;17.394;2023-03-01T13:57:56;25.20;31.40
43561;DHT22;32305;46.410;17.394;2023-03-01T14:00:34;25.20;31.40
43561;DHT22;32305;46.410;17.394;2023-03-01T14:03:13;25.20;31.40
43561;DHT22;32305;46.410;17.394;2023-03-01T14:05:43;25.20;31.50
43561;DHT22;32305;46.410;17.394;2023-03-01T14:08:23;25.20;31.50
43561;DHT22;32305;46.410;17.394;2023-03-01T14:10:58;25.20;32.10
43561;DHT22;32305;46.410;17.394;2023-03-01T14:14:01;25.10;31.50
43561;DHT22;32305;46.410;17.394;2023-03-01T14:16:50;25.10;31.80
43561;DHT22;32305;46.410;17.394;2023-03-01T14:19:24;25.20;32.10
43561;DHT22;32305;46.410;17.394;2023-03-01T14:22:27;25.10;32.10
43561;DHT22;32305;46.410;17.394;2023-03-01T14:25:01;25.10;32.10
43561;DHT22;32305;46.410;17.394;2023-03-01T14:27:37;25.10;32.20
43561;DHT22;32305;46.410;17.394;2023-03-01T14:30:14;25.10;32.20
43561;DHT22;32305;46.410;17.394;2023-03-01T14:32:42;25.10;32.30
43561;DHT22;32305;46.410;17.394;2023-03-01T14:35:31;25.10;32.20
43561;DHT22;32305;46.410;17.394;2023-03-01T14:38:00;25.10;32.30
43561;DHT22;32305;46.410;17.394;2023-03-01T14:40:36;25.10;32.30
43561;DHT22;32305;46.410;17.394;2023-03-01T14:43:11;25.10;32.20
43561;DHT22;32305;46.410;17.394;2023-03-01T14:45:39;25.10;32.20
43561;DHT22;32305;46.410;17.394;2023-03-01T14:48:11;25.10;32.30
43561;DHT22;32305;46.410;17.394;2023-03-01T14:50:43;25.10;32.30
43561;DHT22;32305;46.410;17.394;2023-03-01T14:53:24;25.10;32.30
43561;DHT22;32305;46.410;17.394;2023-03-01T14:55:55;25.10;32.20
43561;DHT22;32305;46.410;17.394;2023-03-01T14:58:24;25.10;32.00
43561;DHT22;32305;46.410;17.394;2023-03-01T15:01:00;25.10;32.10
43561;DHT22;32305;46.410;17.394;2023-03-01T15:03:47;25.10;32.30
43561;DHT22;32305;46.410;17.394;2023-03-01T15:06:19;25.10;32.30
43561;DHT22;32305;46.410;17.394;2023-03-01T15:08:51;25.10;32.30
43561;DHT22;32305;46.410;17.394;2023-03-01T15:11:32;25.10;32.30
43561;DHT22;32305;46.410;17.394;2023-03-01T15:14:00;25.10;32.40
43561;DHT22;32305;46.410;17.394;2023-03-01T15:16:29;25.10;32.40
43561;DHT22;32305;46.410;17.394;2023-03-01T15:19:04;25.10;32.40
43561;DHT22;32305;46.410;17.394;2023-03-01T15:21:37;25.10;32.50
43561;DHT22;32305;46.410;17.394;2023-03-01T15:24:20;25.00;32.60
43561;DHT22;32305;46.410;17.394;2023-03-01T15:26:56;25.00;32.70
43561;DHT22;32305;46.410;17.394;2023-03-01T15:29:28;25.00;32.70
43561;DHT22;32305;46.410;17.394;2023-03-01T15:32:02;25.00;32.70
43561;DHT22;32305;46.410;17.394;2023-03-01T15:34:35;25.00;32.80
43561;DHT22;32305;46.410;17.394;2023-03-01T15:37:05;24.90;33.00
43561;DHT22;32305;46.410;17.394;2023-03-01T15:39:53;24.90;33.10
43561;DHT22;32305;46.410;17.394;2023-03-01T15:42:39;24.80;33.10
43561;DHT22;32305;46.410;17.394;2023-03-01T15:45:23;24.80;33.20
43561;DHT22;32305;46.410;17.394;2023-03-01T15:47:58;24.70;33.20
43561;DHT22;32305;46.410;17.394;2023-03-01T15:50:31;24.70;33.20
43561;DHT22;32305;46.410;17.394;2023-03-01T15:53:10;24.70;33.40
43561;DHT22;32305;46.410;17.394;2023-03-01T15:55:38;24.60;33.40
43561;DHT22;32305;46.410;17.394;2023-03-01T15:58:18;24.60;33.60
43561;DHT22;32305;46.410;17.394;2023-03-01T16:00:48;24.50;33.60
43561;DHT22;32305;46.410;17.394;2023-03-01T16:03:29;24.50;33.80
43561;DHT22;32305;46.410;17.394;2023-03-01T16:05:57;24.40;34.00
43561;DHT22;32305;46.410;17.394;2023-03-01T16:08:24;24.40;34.30
43561;DHT22;32305;46.410;17.394;2023-03-01T16:10:51;24.30;34.60
43561;DHT22;32305;46.410;17.394;2023-03-01T16:13:20;24.30;34.80
43561;DHT22;32305;46.410;17.394;2023-03-01T16:15:47;24.30;35.30
43561;DHT22;32305;46.410;17.394;2023-03-01T16:18:14;24.20;35.50
43561;DHT22;32305;46.410;17.394;2023-03-01T16:20:41;24.20;35.60
43561;DHT22;32305;46.410;17.394;2023-03-01T16:23:11;24.10;35.80
43561;DHT22;32305;46.410;17.394;2023-03-01T16:25:38;24.10;36.10
43561;DHT22;32305;46.410;17.394;2023-03-01T16:28:08;24.10;36.20
43561;DHT22;32305;46.410;17.394;2023-03-01T16:30:39;24.00;36.80